createdAt,value
2019-01-04T00:00:25.834Z,97.40
2019-01-04T00:02:54.808Z,97.40
2019-01-04T00:05:23.927Z,97.30
2019-01-04T00:07:52.895Z,97.00
2019-01-04T00:10:21.864Z,97.10
2019-01-04T00:12:50.946Z,96.90
2019-01-04T00:15:19.924Z,97.20
2019-01-04T00:17:48.891Z,96.90
2019-01-04T00:20:17.943Z,96.80
2019-01-04T00:22:46.914Z,96.80
2019-01-04T00:25:15.893Z,97.00
2019-01-04T00:27:44.852Z,96.30
2019-01-04T00:30:14.004Z,96.60
2019-01-04T00:32:43.005Z,95.90
2019-01-04T00:35:12.049Z,96.40
2019-01-04T00:37:41.163Z,96.40
2019-01-04T00:40:10.568Z,96.30
2019-01-04T00:42:39.544Z,96.30
2019-01-04T00:45:09.238Z,96.20
2019-01-04T00:47:38.279Z,96.40
2019-01-04T00:50:08.508Z,96.60
2019-01-04T00:52:37.542Z,96.80
2019-01-04T00:55:15.534Z,96.60
2019-01-04T00:58:22.213Z,96.60
2019-01-04T01:01:16.790Z,96.50
2019-01-04T01:04:05.595Z,96.70
2019-01-04T01:07:07.875Z,96.80
2019-01-04T01:09:57.246Z,96.90
2019-01-04T01:12:43.523Z,96.70
2019-01-04T01:15:15.565Z,97.20
2019-01-04T01:18:21.150Z,97.20
2019-01-04T01:21:04.968Z,97.00
2019-01-04T01:23:59.396Z,97.10
2019-01-04T01:26:37.444Z,97.70
2019-01-04T01:29:24.484Z,97.60
2019-01-04T01:31:55.722Z,97.50
2019-01-04T01:34:49.017Z,97.10
2019-01-04T01:37:43.784Z,97.10
2019-01-04T01:40:39.550Z,96.90
2019-01-04T01:43:36.550Z,96.80
2019-01-04T01:46:24.929Z,97.30
2019-01-04T01:48:59.825Z,97.40
2019-01-04T01:51:31.873Z,98.20
2019-01-04T01:54:00.845Z,97.70
2019-01-04T01:56:29.803Z,97.40
2019-01-04T01:58:58.771Z,97.70
2019-01-04T02:01:27.746Z,98.00
2019-01-04T02:03:56.703Z,98.00
2019-01-04T02:06:25.690Z,97.80
2019-01-04T02:08:54.651Z,97.90
2019-01-04T02:11:23.615Z,97.90
2019-01-04T02:13:52.585Z,97.80
2019-01-04T02:16:21.542Z,98.00
2019-01-04T02:18:50.538Z,98.00
2019-01-04T02:21:19.558Z,98.10
2019-01-04T02:23:48.539Z,97.70
2019-01-04T02:26:17.495Z,97.80
2019-01-04T02:28:46.470Z,97.90
2019-01-04T02:31:15.438Z,98.10
2019-01-04T02:33:44.420Z,98.20
2019-01-04T02:36:13.385Z,98.00
2019-01-04T02:38:42.390Z,98.20
2019-01-04T02:41:11.368Z,97.50
2019-01-04T02:43:40.627Z,98.00
2019-01-04T02:46:09.686Z,97.20
2019-01-04T02:48:38.657Z,98.00
2019-01-04T02:51:07.607Z,97.80
2019-01-04T02:53:36.586Z,98.20
2019-01-04T02:56:05.601Z,98.00
2019-01-04T02:58:34.611Z,97.90
2019-01-04T03:01:03.699Z,98.20
2019-01-04T03:03:32.691Z,97.70
2019-01-04T03:06:01.650Z,98.20
2019-01-04T03:08:30.626Z,98.10
2019-01-04T03:10:59.598Z,97.80
2019-01-04T03:13:28.583Z,98.20
2019-01-04T03:15:57.606Z,98.40
2019-01-04T03:18:26.579Z,97.80
2019-01-04T03:20:55.549Z,98.20
2019-01-04T03:23:24.522Z,98.10
2019-01-04T03:25:53.471Z,98.20
2019-01-04T03:28:22.458Z,97.90
2019-01-04T03:30:51.482Z,97.60
2019-01-04T03:33:20.469Z,97.50
2019-01-04T03:35:49.497Z,97.70
2019-01-04T03:38:18.466Z,98.00
2019-01-04T03:40:47.425Z,98.40
2019-01-04T03:43:16.399Z,98.30
2019-01-04T03:45:45.441Z,98.20
2019-01-04T03:48:14.416Z,98.00
2019-01-04T03:50:43.375Z,98.30
2019-01-04T03:53:12.351Z,98.10
2019-01-04T03:55:41.332Z,98.70
2019-01-04T03:58:10.286Z,99.00
2019-01-04T04:00:39.251Z,98.40
2019-01-04T04:03:08.234Z,98.40
2019-01-04T04:05:37.206Z,98.30
2019-01-04T04:08:06.182Z,98.20
2019-01-04T04:10:35.150Z,98.10
2019-01-04T04:13:04.139Z,98.20
2019-01-04T04:15:33.181Z,98.00
2019-01-04T04:18:02.178Z,98.20
2019-01-04T04:20:31.137Z,98.20
2019-01-04T04:23:00.102Z,98.20
2019-01-04T04:25:29.075Z,98.00
2019-01-04T04:27:58.986Z,98.30
2019-01-04T04:30:27.955Z,98.40
2019-01-04T04:32:56.996Z,98.50
2019-01-04T04:35:25.957Z,98.40
2019-01-04T04:37:54.929Z,98.80
2019-01-04T04:40:23.911Z,99.70
2019-01-04T04:42:52.887Z,99.90
2019-01-04T04:45:21.858Z,99.90
2019-01-04T04:47:50.823Z,99.90
2019-01-04T04:50:19.807Z,99.90
2019-01-04T04:52:48.779Z,99.90
2019-01-04T04:55:17.744Z,99.90
2019-01-04T04:57:46.710Z,99.90
2019-01-04T05:00:15.686Z,99.90
2019-01-04T05:02:44.674Z,99.90
2019-01-04T05:05:13.654Z,99.90
2019-01-04T05:07:42.624Z,99.90
2019-01-04T05:10:11.583Z,99.90
2019-01-04T05:12:40.575Z,99.90
2019-01-04T05:15:09.535Z,99.90
2019-01-04T05:17:38.506Z,99.90
2019-01-04T05:20:07.478Z,99.90
2019-01-04T05:22:36.452Z,99.90
2019-01-04T05:25:05.514Z,99.90
2019-01-04T05:27:34.480Z,99.90
2019-01-04T05:30:04.028Z,99.90
2019-01-04T05:32:32.986Z,99.90
2019-01-04T05:35:01.975Z,99.90
2019-01-04T05:37:30.949Z,99.90
2019-01-04T05:39:59.918Z,99.90
2019-01-04T05:42:28.900Z,99.90
2019-01-04T05:44:57.864Z,99.90
2019-01-04T05:47:26.851Z,99.90
2019-01-04T05:49:55.825Z,99.90
2019-01-04T05:52:24.803Z,99.90
2019-01-04T05:54:53.779Z,99.90
2019-01-04T05:57:22.750Z,99.90
2019-01-04T05:59:51.719Z,99.90
2019-01-04T06:02:20.698Z,99.90
2019-01-04T06:04:49.682Z,99.90
2019-01-04T06:07:18.663Z,99.90
2019-01-04T06:09:47.639Z,99.90
2019-01-04T06:12:16.598Z,99.90
2019-01-04T06:14:45.575Z,99.90
2019-01-04T06:17:14.546Z,99.90
2019-01-04T06:19:43.503Z,99.90
2019-01-04T06:22:12.491Z,99.90
2019-01-04T06:24:41.455Z,99.90
2019-01-04T06:27:10.539Z,99.90
2019-01-04T06:29:39.505Z,99.90
2019-01-04T06:32:08.487Z,99.90
2019-01-04T06:34:37.462Z,99.90
2019-01-04T06:37:06.427Z,99.90
2019-01-04T06:39:35.404Z,99.90
2019-01-04T06:42:04.434Z,99.90
2019-01-04T06:44:33.410Z,99.90
2019-01-04T06:47:10.393Z,99.90
2019-01-04T06:49:39.378Z,99.90
2019-01-04T06:52:08.415Z,99.90
2019-01-04T06:55:13.785Z,99.90
2019-01-04T06:57:42.747Z,99.90
2019-01-04T07:00:11.894Z,99.90
2019-01-04T07:02:41.070Z,99.90
2019-01-04T07:05:10.186Z,99.90
2019-01-04T07:07:39.286Z,99.90
2019-01-04T07:10:09.418Z,99.90
2019-01-04T07:12:38.371Z,99.90
2019-01-04T07:15:07.491Z,99.90
2019-01-04T07:17:36.456Z,99.90
2019-01-04T07:20:05.974Z,99.90
2019-01-04T07:22:34.955Z,99.90
2019-01-04T07:25:04.122Z,99.90
2019-01-04T07:27:33.086Z,99.90
2019-01-04T07:30:02.071Z,99.90
2019-01-04T07:32:31.035Z,99.80
2019-01-04T07:35:00.177Z,99.50
2019-01-04T07:37:29.143Z,99.40
2019-01-04T07:39:58.181Z,99.90
2019-01-04T07:42:27.147Z,99.90
2019-01-04T07:44:56.161Z,99.90
2019-01-04T07:47:25.213Z,99.90
2019-01-04T07:49:54.190Z,99.90
2019-01-04T07:52:23.175Z,99.90
2019-01-04T07:54:52.144Z,99.70
2019-01-04T07:57:21.126Z,99.80
2019-01-04T07:59:50.096Z,99.10
2019-01-04T08:02:37.161Z,99.50
2019-01-04T08:05:11.985Z,99.40
2019-01-04T08:07:40.950Z,98.90
2019-01-04T08:10:10.054Z,98.90
2019-01-04T08:12:39.054Z,98.30
2019-01-04T08:15:10.547Z,98.40
2019-01-04T08:17:39.540Z,98.40
2019-01-04T08:20:10.238Z,97.70
2019-01-04T08:22:39.220Z,97.70
2019-01-04T08:25:08.879Z,97.70
2019-01-04T08:27:37.910Z,97.90
2019-01-04T08:30:09.878Z,97.90
2019-01-04T08:32:38.931Z,97.60
2019-01-04T08:35:08.034Z,98.20
2019-01-04T08:37:37.019Z,98.40
2019-01-04T08:40:08.727Z,98.10
2019-01-04T08:42:37.719Z,98.30
2019-01-04T08:45:07.942Z,98.10
2019-01-04T08:47:36.922Z,98.10
2019-01-04T08:50:08.015Z,97.80
2019-01-04T08:52:37.071Z,98.00
2019-01-04T08:55:08.459Z,98.10
2019-01-04T08:57:37.435Z,97.60
2019-01-04T09:00:09.472Z,97.30
2019-01-04T09:02:38.453Z,97.30
2019-01-04T09:05:07.480Z,97.40
2019-01-04T09:07:36.532Z,97.60
2019-01-04T09:10:06.829Z,97.80
2019-01-04T09:12:35.798Z,97.90
2019-01-04T09:15:07.109Z,98.00
2019-01-04T09:17:36.097Z,98.20
2019-01-04T09:20:07.990Z,98.40
2019-01-04T09:22:37.033Z,98.00
2019-01-04T09:25:07.338Z,98.10
2019-01-04T09:27:36.314Z,97.80
2019-01-04T09:30:08.218Z,97.60
2019-01-04T09:32:37.199Z,97.70
2019-01-04T09:35:06.753Z,97.90
2019-01-04T09:37:35.739Z,97.60
2019-01-04T09:40:07.258Z,97.10
2019-01-04T09:42:36.649Z,97.40
2019-01-04T09:45:07.639Z,97.00
2019-01-04T09:47:36.624Z,96.90
2019-01-04T09:50:07.726Z,97.50
2019-01-04T09:52:36.711Z,97.10
2019-01-04T09:55:06.314Z,97.30
2019-01-04T09:57:35.289Z,97.20
2019-01-04T10:00:06.210Z,96.90
2019-01-04T10:02:35.182Z,97.50
2019-01-04T10:05:05.974Z,97.10
2019-01-04T10:07:34.962Z,97.40
2019-01-04T10:10:06.063Z,97.30
2019-01-04T10:12:35.029Z,96.80
2019-01-04T10:15:06.007Z,96.60
2019-01-04T10:17:34.977Z,96.30
2019-01-04T10:20:06.286Z,96.80
2019-01-04T10:22:35.243Z,96.80
2019-01-04T10:25:05.589Z,96.30
2019-01-04T10:27:34.536Z,96.40
2019-01-04T10:30:04.126Z,96.00
2019-01-04T10:32:33.106Z,96.00
2019-01-04T10:35:02.095Z,96.30
2019-01-04T10:37:31.067Z,96.30
2019-01-04T10:40:00.088Z,95.80
2019-01-04T10:42:29.111Z,95.50
2019-01-04T10:44:58.094Z,96.60
2019-01-04T10:47:27.144Z,96.40
2019-01-04T10:49:56.119Z,96.00
2019-01-04T10:52:25.088Z,96.10
2019-01-04T10:54:54.144Z,96.00
2019-01-04T10:57:23.107Z,96.10
2019-01-04T10:59:52.084Z,96.40
2019-01-04T11:02:21.052Z,95.90
2019-01-04T11:04:50.023Z,96.10
2019-01-04T11:07:18.985Z,96.10
2019-01-04T11:09:47.963Z,96.30
2019-01-04T11:12:17.175Z,95.40
2019-01-04T11:14:46.142Z,95.20
2019-01-04T11:17:15.115Z,95.90
2019-01-04T11:19:44.102Z,96.00
2019-01-04T11:22:49.267Z,95.70
2019-01-04T11:25:54.521Z,95.00
2019-01-04T11:28:53.631Z,94.80
2019-01-04T11:31:31.526Z,94.90
2019-01-04T11:34:12.541Z,94.70
2019-01-04T11:37:05.710Z,95.10
2019-01-04T11:39:37.750Z,95.70
2019-01-04T11:42:09.839Z,95.70
2019-01-04T11:45:02.727Z,95.30
2019-01-04T11:47:46.522Z,95.50
2019-01-04T11:50:30.526Z,95.70
2019-01-04T11:53:00.743Z,95.20
2019-01-04T11:55:29.696Z,94.90
2019-01-04T11:57:58.665Z,95.50
2019-01-04T12:00:27.743Z,95.60
2019-01-04T12:02:56.731Z,95.70
2019-01-04T12:05:25.676Z,95.60
2019-01-04T12:07:54.650Z,95.30
2019-01-04T12:10:23.628Z,94.80
2019-01-04T12:12:52.609Z,95.00
2019-01-04T12:15:21.647Z,95.10
2019-01-04T12:17:50.619Z,94.90
2019-01-04T12:20:19.571Z,94.30
2019-01-04T12:22:48.575Z,94.00
2019-01-04T12:25:17.550Z,94.20
2019-01-04T12:27:46.512Z,94.30
2019-01-04T12:30:15.586Z,94.90
2019-01-04T12:32:44.595Z,94.70
2019-01-04T12:35:13.637Z,94.30
2019-01-04T12:37:42.683Z,94.30
2019-01-04T12:40:11.727Z,94.60
2019-01-04T12:42:40.723Z,94.60
2019-01-04T12:45:09.826Z,94.00
2019-01-04T12:47:38.823Z,94.80
2019-01-04T12:50:08.650Z,94.20
2019-01-04T12:52:37.627Z,94.30
2019-01-04T12:55:06.676Z,94.90
2019-01-04T12:57:35.711Z,94.70
2019-01-04T13:00:07.871Z,95.00
2019-01-04T13:02:36.828Z,94.80
2019-01-04T13:05:05.935Z,95.60
2019-01-04T13:07:34.922Z,96.50
2019-01-04T13:10:04.334Z,96.80
2019-01-04T13:12:33.314Z,97.40
2019-01-04T13:15:02.295Z,97.10
2019-01-04T13:17:31.259Z,97.20
2019-01-04T13:20:00.236Z,97.10
2019-01-04T13:22:29.200Z,97.30
2019-01-04T13:24:58.178Z,97.40
2019-01-04T13:27:27.139Z,97.30
2019-01-04T13:29:56.114Z,97.40
2019-01-04T13:32:25.094Z,98.40
2019-01-04T13:34:54.071Z,98.60
2019-01-04T13:37:23.134Z,98.90
2019-01-04T13:39:52.158Z,99.40
2019-01-04T13:42:21.131Z,99.70
2019-01-04T13:44:50.103Z,99.70
2019-01-04T13:47:19.079Z,99.70
2019-01-04T13:49:48.034Z,99.90
2019-01-04T13:52:17.006Z,99.90
2019-01-04T13:54:45.979Z,99.60
2019-01-04T13:57:14.961Z,99.80
2019-01-04T13:59:43.906Z,99.70
2019-01-04T14:02:12.896Z,99.70
2019-01-04T14:04:41.865Z,99.70
2019-01-04T14:07:10.866Z,99.90
2019-01-04T14:09:39.839Z,99.50
2019-01-04T14:12:08.810Z,99.90
2019-01-04T14:14:37.762Z,99.90
2019-01-04T14:17:06.755Z,99.90
2019-01-04T14:19:35.719Z,99.90
2019-01-04T14:22:04.674Z,99.90
2019-01-04T14:24:33.736Z,99.90
2019-01-04T14:27:02.711Z,99.90
2019-01-04T14:29:31.746Z,99.90
2019-01-04T14:32:00.704Z,99.90
2019-01-04T14:34:29.687Z,99.90
2019-01-04T14:36:58.725Z,99.90
2019-01-04T14:39:27.719Z,99.90
2019-01-04T14:41:57.583Z,99.90
2019-01-04T14:44:26.555Z,99.90
2019-01-04T14:46:55.524Z,99.90
2019-01-04T14:49:26.227Z,99.90
2019-01-04T14:51:55.252Z,99.90
2019-01-04T14:54:24.311Z,99.90
2019-01-04T14:56:53.277Z,99.90
2019-01-04T14:59:22.258Z,99.90
2019-01-04T15:01:51.228Z,99.90
2019-01-04T15:04:20.199Z,99.10
2019-01-04T15:06:49.174Z,99.20
2019-01-04T15:09:18.166Z,99.00
2019-01-04T15:11:47.129Z,98.80
2019-01-04T15:14:16.098Z,98.70
2019-01-04T15:16:45.055Z,99.10
2019-01-04T15:19:14.095Z,99.30
2019-01-04T15:21:43.068Z,98.90
2019-01-04T15:24:12.052Z,99.30
2019-01-04T15:26:40.998Z,99.20
2019-01-04T15:29:10.008Z,99.20
2019-01-04T15:31:38.968Z,99.10
2019-01-04T15:34:07.948Z,99.20
2019-01-04T15:36:36.908Z,99.00
2019-01-04T15:39:07.410Z,99.80
2019-01-04T15:41:36.382Z,99.90
2019-01-04T15:44:05.439Z,99.80
2019-01-04T15:46:34.417Z,99.90
2019-01-04T15:49:03.410Z,99.70
2019-01-04T15:51:32.362Z,99.80
2019-01-04T15:54:01.354Z,99.80
2019-01-04T15:56:30.339Z,99.80
2019-01-04T15:58:59.328Z,99.90
2019-01-04T16:01:28.295Z,99.90
2019-01-04T16:03:57.279Z,99.90
2019-01-04T16:06:26.246Z,99.90
2019-01-04T16:08:55.261Z,99.90
2019-01-04T16:11:24.273Z,99.90
2019-01-04T16:13:53.259Z,99.90
2019-01-04T16:16:22.216Z,99.90
2019-01-04T16:18:51.190Z,99.90
2019-01-04T16:21:20.150Z,99.90
2019-01-04T16:23:49.130Z,99.90
2019-01-04T16:26:18.178Z,99.90
2019-01-04T16:28:47.159Z,99.90
2019-01-04T16:31:16.126Z,99.90
2019-01-04T16:33:45.098Z,99.90
2019-01-04T16:36:14.162Z,99.90
2019-01-04T16:38:43.137Z,99.90
2019-01-04T16:41:12.114Z,99.90
2019-01-04T16:43:41.086Z,99.90
2019-01-04T16:46:10.095Z,99.90
2019-01-04T16:48:39.061Z,99.90
2019-01-04T16:51:08.039Z,99.90
2019-01-04T16:53:37.033Z,99.90
2019-01-04T16:56:06.088Z,99.90
2019-01-04T16:58:35.068Z,99.90
2019-01-04T17:01:04.112Z,99.90
2019-01-04T17:03:33.090Z,99.90
2019-01-04T17:06:02.070Z,99.90
2019-01-04T17:08:31.114Z,99.90
2019-01-04T17:11:00.154Z,99.90
2019-01-04T17:13:29.143Z,99.90
2019-01-04T17:15:58.126Z,99.90
2019-01-04T17:18:27.193Z,99.90
2019-01-04T17:20:56.168Z,99.90
2019-01-04T17:23:25.147Z,99.90
2019-01-04T17:25:54.146Z,99.90
2019-01-04T17:28:23.127Z,99.90
2019-01-04T17:30:52.146Z,99.90
2019-01-04T17:33:21.209Z,99.90
2019-01-04T17:35:50.183Z,99.90
2019-01-04T17:38:19.147Z,99.90
2019-01-04T17:40:48.148Z,99.90
2019-01-04T17:43:17.114Z,99.90
2019-01-04T17:45:46.104Z,99.90
2019-01-04T17:48:15.123Z,99.90
2019-01-04T17:50:44.126Z,99.90
2019-01-04T17:53:13.100Z,99.90
2019-01-04T17:55:42.080Z,99.90
2019-01-04T17:58:11.059Z,99.90
2019-01-04T18:00:40.070Z,99.90
2019-01-04T18:03:09.039Z,99.90
2019-01-04T18:05:38.036Z,99.90
2019-01-04T18:08:07.021Z,99.90
2019-01-04T18:10:36.019Z,99.90
2019-01-04T18:13:04.985Z,99.90
2019-01-04T18:15:34.053Z,99.90
2019-01-04T18:18:03.041Z,99.90
2019-01-04T18:20:32.039Z,99.90
2019-01-04T18:23:01.002Z,99.90
2019-01-04T18:25:30.000Z,99.90
2019-01-04T18:27:58.971Z,99.90
2019-01-04T18:30:27.959Z,99.90
2019-01-04T18:32:56.930Z,99.90
2019-01-04T18:35:25.912Z,99.90
2019-01-04T18:37:54.910Z,99.90
2019-01-04T18:40:23.880Z,99.90
2019-01-04T18:42:52.859Z,99.90
2019-01-04T18:45:21.842Z,99.90
2019-01-04T18:47:50.820Z,99.90
2019-01-04T18:50:21.695Z,99.90
2019-01-04T18:52:50.765Z,99.90
2019-01-04T18:55:19.768Z,99.90
2019-01-04T18:57:48.749Z,99.90
2019-01-04T19:00:17.742Z,99.90
2019-01-04T19:02:46.740Z,99.90
2019-01-04T19:05:15.736Z,99.90
2019-01-04T19:07:45.241Z,99.90
2019-01-04T19:10:14.323Z,99.90
2019-01-04T19:12:43.490Z,99.90
2019-01-04T19:15:12.461Z,99.90
2019-01-04T19:17:41.522Z,99.90
2019-01-04T19:20:10.497Z,99.90
2019-01-04T19:22:39.800Z,99.90
2019-01-04T19:25:08.805Z,99.90
2019-01-04T19:27:37.759Z,99.90
2019-01-04T19:30:08.271Z,99.90
2019-01-04T19:32:37.357Z,99.90
2019-01-04T19:35:06.399Z,99.90
2019-01-04T19:37:35.399Z,99.90
2019-01-04T19:40:05.521Z,99.90
2019-01-04T19:42:34.511Z,99.90
2019-01-04T19:45:04.327Z,99.90
2019-01-04T19:47:33.312Z,99.90
2019-01-04T19:50:11.212Z,99.90
2019-01-04T19:52:40.183Z,99.90
2019-01-04T19:55:09.200Z,99.90
2019-01-04T19:57:38.171Z,99.90
2019-01-04T20:00:07.281Z,99.90
2019-01-04T20:02:36.343Z,99.90
2019-01-04T20:05:06.462Z,99.90
2019-01-04T20:08:01.243Z,99.90
2019-01-04T20:11:17.486Z,99.90
2019-01-04T20:14:10.425Z,99.90
2019-01-04T20:16:50.603Z,99.90
2019-01-04T20:19:37.422Z,99.90
2019-01-04T20:22:26.038Z,99.90
2019-01-04T20:24:56.670Z,99.90
2019-01-04T20:27:42.282Z,99.90
2019-01-04T20:30:18.948Z,99.90
2019-01-04T20:33:05.613Z,99.90
2019-01-04T20:35:39.222Z,99.90
2019-01-04T20:38:26.307Z,99.90
2019-01-04T20:40:56.946Z,99.90
2019-01-04T20:43:27.562Z,99.90
2019-01-04T20:46:10.314Z,99.90
2019-01-04T20:48:40.959Z,99.90
2019-01-04T20:51:17.538Z,99.90
2019-01-04T20:53:50.903Z,99.90
2019-01-04T20:56:21.543Z,99.90
2019-01-04T20:58:54.832Z,99.90
2019-01-04T21:01:41.895Z,99.90
2019-01-04T21:04:15.517Z,99.90
2019-01-04T21:06:55.535Z,99.90
2019-01-04T21:09:26.150Z,99.90
2019-01-04T21:11:56.759Z,99.90
2019-01-04T21:14:33.327Z,99.90
2019-01-04T21:17:06.903Z,99.90
2019-01-04T21:19:43.470Z,99.90
2019-01-04T21:22:16.870Z,99.90
2019-01-04T21:24:47.487Z,99.90
2019-01-04T21:27:24.233Z,99.90
2019-01-04T21:29:54.901Z,99.90
2019-01-04T21:32:28.239Z,99.90
2019-01-04T21:34:58.872Z,99.90
2019-01-04T21:37:41.423Z,99.90
2019-01-04T21:40:23.966Z,99.90
2019-01-04T21:43:03.445Z,99.90
2019-01-04T21:45:50.528Z,99.90
2019-01-04T21:48:37.446Z,99.90
2019-01-04T21:51:13.839Z,99.90
2019-01-04T21:53:47.146Z,99.90
2019-01-04T21:56:33.925Z,99.90
2019-01-04T21:59:16.537Z,99.90
2019-01-04T22:01:47.157Z,99.90
2019-01-04T22:04:34.210Z,99.90
2019-01-04T22:07:13.720Z,99.90
2019-01-04T22:09:53.546Z,99.90
2019-01-04T22:12:27.103Z,99.90
2019-01-04T22:15:14.441Z,99.90
2019-01-04T22:17:53.925Z,99.90
2019-01-04T22:20:42.594Z,99.90
2019-01-04T22:23:13.198Z,99.90
2019-01-04T22:26:00.475Z,99.90
2019-01-04T22:28:37.323Z,99.90
2019-01-04T22:31:10.779Z,99.90
2019-01-04T22:33:41.419Z,99.90
2019-01-04T22:36:17.503Z,99.90
2019-01-04T22:39:04.350Z,99.90
2019-01-04T22:41:40.543Z,99.90
2019-01-04T22:44:27.429Z,99.90
2019-01-04T22:47:14.520Z,99.90
2019-01-04T22:50:00.161Z,99.90
2019-01-04T22:52:46.966Z,99.90
2019-01-04T22:55:17.603Z,99.90
2019-01-04T22:57:53.907Z,99.90
2019-01-04T23:00:35.351Z,99.90
2019-01-04T23:03:21.907Z,99.90
2019-01-04T23:06:10.540Z,99.90
2019-01-04T23:08:57.682Z,99.90
2019-01-04T23:11:34.461Z,99.90
2019-01-04T23:14:14.361Z,99.90
2019-01-04T23:17:01.206Z,99.90
2019-01-04T23:19:37.766Z,99.90
2019-01-04T23:22:27.179Z,99.90
2019-01-04T23:25:09.718Z,99.90
2019-01-04T23:27:56.899Z,99.90
2019-01-04T23:30:43.755Z,99.90
2019-01-04T23:33:29.608Z,99.90
2019-01-04T23:36:16.698Z,99.90
2019-01-04T23:38:47.315Z,99.90
2019-01-04T23:41:36.003Z,99.90
2019-01-04T23:44:24.682Z,99.90
2019-01-04T23:47:11.861Z,99.90
2019-01-04T23:49:45.070Z,99.90
2019-01-04T23:52:18.698Z,99.90
2019-01-04T23:54:49.403Z,99.90
2019-01-04T23:57:20.079Z,99.90
